createdAt,value
2023-02-22T00:02:25.145Z,9.03
2023-02-22T00:04:52.322Z,9.20
2023-02-22T00:07:23.847Z,7.90
2023-02-22T00:09:57.178Z,8.67
2023-02-22T00:12:24.164Z,8.33
2023-02-22T00:14:53.441Z,7.70
2023-02-22T00:17:20.603Z,8.70
2023-02-22T00:19:50.130Z,8.63
2023-02-22T00:22:19.700Z,8.37
2023-02-22T00:24:46.486Z,7.97
2023-02-22T00:27:15.491Z,8.40
2023-02-22T00:29:50.855Z,7.50
2023-02-22T00:32:17.919Z,7.93
2023-02-22T00:34:47.820Z,7.73
2023-02-22T00:37:14.706Z,7.83
2023-02-22T00:39:41.498Z,8.73
2023-02-22T00:42:09.409Z,7.90
2023-02-22T00:44:36.240Z,8.97
2023-02-22T00:47:08.543Z,8.07
2023-02-22T00:49:40.998Z,7.33
2023-02-22T00:52:09.425Z,8.63
2023-02-22T00:54:36.432Z,8.63
2023-02-22T00:57:06.388Z,7.73
2023-02-22T00:59:36.593Z,7.97
2023-02-22T01:02:06.178Z,7.17
2023-02-22T01:04:38.082Z,8.33
2023-02-22T01:07:12.460Z,8.13
2023-02-22T01:09:42.059Z,7.63
2023-02-22T01:12:08.834Z,7.60
2023-02-22T01:14:40.032Z,7.23
2023-02-22T01:17:06.904Z,7.93
2023-02-22T01:19:34.214Z,7.87
2023-02-22T01:22:05.375Z,7.87
2023-02-22T01:24:32.521Z,8.93
2023-02-22T01:26:59.515Z,8.97
2023-02-22T01:29:26.522Z,6.93
2023-02-22T01:31:55.917Z,8.03
2023-02-22T01:34:25.940Z,8.27
2023-02-22T01:36:55.101Z,7.43
2023-02-22T01:39:22.037Z,7.80
2023-02-22T01:41:48.809Z,7.53
2023-02-22T01:44:28.496Z,8.20
2023-02-22T01:46:59.964Z,7.67
2023-02-22T01:49:44.505Z,7.17
2023-02-22T01:52:21.063Z,8.57
2023-02-22T01:54:59.004Z,7.63
2023-02-22T01:57:37.285Z,7.83
2023-02-22T02:00:12.459Z,7.90
2023-02-22T02:02:54.752Z,8.30
2023-02-22T02:05:24.825Z,8.03
2023-02-22T02:07:53.274Z,8.03
2023-02-22T02:10:24.344Z,8.60
2023-02-22T02:12:54.140Z,7.87
2023-02-22T02:15:33.560Z,8.23
2023-02-22T02:18:14.131Z,9.03
2023-02-22T02:21:22.995Z,8.57
2023-02-22T02:24:09.108Z,8.33
2023-02-22T02:27:17.916Z,8.87
2023-02-22T02:30:29.019Z,8.97
2023-02-22T02:33:27.021Z,8.30
2023-02-22T02:36:32.620Z,8.17
2023-02-22T02:39:20.447Z,8.80
2023-02-22T02:41:54.748Z,8.73
2023-02-22T02:44:42.707Z,8.77
2023-02-22T02:47:22.842Z,8.63
2023-02-22T02:50:38.830Z,8.63
2023-02-22T02:53:09.938Z,9.43
2023-02-22T02:55:38.266Z,9.20
2023-02-22T02:58:16.123Z,9.17
2023-02-22T03:00:47.748Z,9.13
2023-02-22T03:03:39.156Z,9.80
2023-02-22T03:06:38.293Z,7.97
2023-02-22T03:09:14.335Z,8.97
2023-02-22T03:12:02.237Z,8.50
2023-02-22T03:15:18.852Z,8.47
2023-02-22T03:18:04.296Z,8.07
2023-02-22T03:21:18.697Z,8.20
2023-02-22T03:24:19.472Z,8.23
2023-02-22T03:27:09.179Z,8.50
2023-02-22T03:29:45.624Z,7.43
2023-02-22T03:32:27.243Z,7.47
2023-02-22T03:35:08.008Z,7.00
2023-02-22T03:37:46.432Z,7.67
2023-02-22T03:40:28.881Z,7.07
2023-02-22T03:43:07.728Z,7.60
2023-02-22T03:45:44.688Z,7.03
2023-02-22T03:48:51.354Z,7.23
2023-02-22T03:51:22.555Z,6.90
2023-02-22T03:53:54.076Z,6.60
2023-02-22T03:56:38.001Z,7.17
2023-02-22T03:59:13.014Z,7.33
2023-02-22T04:01:44.672Z,6.70
2023-02-22T04:04:13.872Z,7.20
2023-02-22T04:06:43.318Z,7.43
2023-02-22T04:09:17.916Z,6.83
2023-02-22T04:11:45.342Z,6.97
2023-02-22T04:14:13.626Z,6.73
2023-02-22T04:16:43.246Z,6.50
2023-02-22T04:19:14.716Z,6.33
2023-02-22T04:21:46.395Z,6.87
2023-02-22T04:24:22.541Z,6.57
2023-02-22T04:26:49.939Z,7.00
2023-02-22T04:29:19.743Z,6.70
2023-02-22T04:31:50.338Z,7.20
2023-02-22T04:34:19.507Z,6.13
2023-02-22T04:36:49.068Z,6.17
2023-02-22T04:39:16.544Z,6.07
2023-02-22T04:41:44.432Z,5.90
2023-02-22T04:44:13.966Z,6.13
2023-02-22T04:46:41.270Z,5.63
2023-02-22T04:49:09.047Z,5.90
2023-02-22T04:51:38.238Z,5.27
2023-02-22T04:54:10.373Z,5.87
2023-02-22T04:56:41.433Z,5.63
2023-02-22T04:59:11.137Z,5.20
2023-02-22T05:01:39.834Z,5.97
2023-02-22T05:04:08.118Z,5.97
2023-02-22T05:06:37.035Z,5.73
2023-02-22T05:09:06.164Z,5.90
2023-02-22T05:11:33.029Z,6.00
2023-02-22T05:14:00.193Z,6.03
2023-02-22T05:16:29.221Z,6.40
2023-02-22T05:19:00.878Z,6.27
2023-02-22T05:21:27.862Z,5.87
2023-02-22T05:23:54.692Z,6.47
2023-02-22T05:26:26.067Z,5.83
2023-02-22T05:28:55.440Z,6.77
2023-02-22T05:31:22.384Z,6.80
2023-02-22T05:33:51.384Z,7.03
2023-02-22T05:36:22.874Z,6.77
2023-02-22T05:38:49.750Z,7.13
2023-02-22T05:41:16.868Z,7.00
2023-02-22T05:43:46.256Z,7.63
2023-02-22T05:46:16.296Z,7.67
2023-02-22T05:48:43.361Z,7.33
2023-02-22T05:51:12.719Z,7.00
2023-02-22T05:53:44.450Z,7.83
2023-02-22T05:56:13.655Z,7.67
2023-02-22T05:58:42.825Z,7.00
2023-02-22T06:01:14.297Z,6.77
2023-02-22T06:03:41.262Z,7.53
2023-02-22T06:06:08.218Z,7.47
2023-02-22T06:08:35.191Z,8.23
2023-02-22T06:11:01.955Z,7.17
2023-02-22T06:13:31.089Z,7.73
2023-02-22T06:15:58.944Z,8.47
2023-02-22T06:18:32.950Z,7.30
2023-02-22T06:21:02.618Z,7.77
2023-02-22T06:23:31.652Z,7.07
2023-02-22T06:25:58.441Z,7.40
2023-02-22T06:28:26.223Z,7.30
2023-02-22T06:30:53.128Z,7.30
2023-02-22T06:33:22.074Z,6.80
2023-02-22T06:35:51.031Z,6.70
2023-02-22T06:38:25.956Z,6.60
2023-02-22T06:40:55.701Z,7.57
2023-02-22T06:43:24.761Z,7.37
2023-02-22T06:45:55.462Z,7.80
2023-02-22T06:48:26.768Z,6.67
2023-02-22T06:50:53.614Z,7.27
2023-02-22T06:53:25.396Z,7.53
2023-02-22T06:55:56.135Z,7.03
2023-02-22T06:58:27.375Z,7.23
2023-02-22T07:00:56.954Z,7.07
2023-02-22T07:03:28.799Z,6.77
2023-02-22T07:05:57.763Z,7.10
2023-02-22T07:08:26.671Z,7.30
2023-02-22T07:10:56.105Z,7.03
2023-02-22T07:13:23.072Z,7.53
2023-02-22T07:15:49.979Z,7.53
2023-02-22T07:18:17.048Z,7.13
2023-02-22T07:20:48.682Z,7.27
2023-02-22T07:23:16.811Z,6.00
2023-02-22T07:25:46.318Z,6.83
2023-02-22T07:28:20.488Z,6.97
2023-02-22T07:30:47.407Z,7.27
2023-02-22T07:33:16.588Z,7.20
2023-02-22T07:35:51.016Z,6.83
2023-02-22T07:38:21.098Z,6.63
2023-02-22T07:40:50.348Z,7.47
2023-02-22T07:43:20.871Z,7.13
2023-02-22T07:45:50.394Z,6.97
2023-02-22T07:48:21.773Z,7.00
2023-02-22T07:50:49.357Z,7.07
2023-02-22T07:53:30.063Z,7.03
2023-02-22T07:55:58.635Z,7.00
2023-02-22T07:58:30.910Z,7.30
2023-02-22T08:01:02.065Z,7.03
2023-02-22T08:03:38.430Z,6.70
2023-02-22T08:06:12.259Z,7.20
2023-02-22T08:08:43.811Z,7.40
2023-02-22T08:11:10.614Z,7.10
2023-02-22T08:13:41.462Z,7.70
2023-02-22T08:16:10.617Z,8.43
2023-02-22T08:18:38.764Z,8.43
2023-02-22T08:21:10.568Z,7.33
2023-02-22T08:23:39.582Z,7.27
2023-02-22T08:26:15.447Z,6.83
2023-02-22T08:28:47.138Z,7.30
2023-02-22T08:31:16.442Z,7.00
2023-02-22T08:33:49.922Z,7.03
2023-02-22T08:36:19.331Z,7.80
2023-02-22T08:38:46.140Z,7.83
2023-02-22T08:41:15.319Z,7.77
2023-02-22T08:43:44.766Z,7.70
2023-02-22T08:46:13.963Z,8.23
2023-02-22T08:48:54.953Z,6.73
2023-02-22T08:51:28.710Z,5.97
2023-02-22T08:53:55.666Z,6.03
2023-02-22T08:56:23.138Z,5.50
2023-02-22T08:58:50.018Z,7.17
2023-02-22T09:01:32.671Z,5.73
2023-02-22T09:04:02.759Z,6.13
2023-02-22T09:06:32.409Z,6.20
2023-02-22T09:09:02.219Z,7.30
2023-02-22T09:11:33.922Z,6.33
2023-02-22T09:14:02.917Z,6.63
2023-02-22T09:16:33.463Z,6.63
2023-02-22T09:19:02.843Z,6.70
2023-02-22T09:21:29.628Z,6.57
2023-02-22T09:23:56.476Z,6.83
2023-02-22T09:26:27.741Z,6.87
2023-02-22T09:28:56.791Z,6.80
2023-02-22T09:31:25.968Z,7.33
2023-02-22T09:33:57.634Z,7.87
2023-02-22T09:36:26.935Z,7.53
2023-02-22T09:38:56.228Z,7.17
2023-02-22T09:41:55.142Z,7.10
2023-02-22T09:44:36.168Z,6.43
2023-02-22T09:47:18.144Z,6.80
2023-02-22T09:50:03.136Z,7.37
2023-02-22T09:52:41.325Z,6.73
2023-02-22T09:55:31.004Z,6.80
2023-02-22T09:58:05.894Z,6.80
2023-02-22T10:00:43.597Z,8.23
2023-02-22T10:03:26.462Z,8.17
2023-02-22T10:06:04.537Z,7.80
2023-02-22T10:08:38.884Z,7.77
2023-02-22T10:11:48.954Z,7.60
2023-02-22T10:14:24.814Z,7.67
2023-02-22T10:17:27.384Z,8.13
2023-02-22T10:20:16.548Z,8.50
2023-02-22T10:23:14.095Z,8.10
2023-02-22T10:25:52.669Z,9.10
2023-02-22T10:28:34.792Z,8.67
2023-02-22T10:31:21.662Z,8.63
2023-02-22T10:34:00.869Z,7.57
2023-02-22T10:36:30.187Z,8.53
2023-02-22T10:39:12.174Z,9.60
2023-02-22T10:41:49.276Z,9.33
2023-02-22T10:44:16.914Z,9.90
2023-02-22T10:46:47.283Z,9.83
2023-02-22T10:49:26.702Z,9.53
2023-02-22T10:52:02.934Z,8.90
2023-02-22T10:54:40.805Z,10.70
2023-02-22T10:57:09.645Z,9.03
2023-02-22T10:59:45.219Z,9.63
2023-02-22T11:02:23.330Z,9.67
2023-02-22T11:04:56.386Z,10.33
2023-02-22T11:07:27.218Z,9.07
2023-02-22T11:10:01.842Z,9.70
2023-02-22T11:12:38.625Z,9.77
2023-02-22T11:15:17.598Z,8.63
2023-02-22T11:17:57.793Z,8.90
2023-02-22T11:20:34.811Z,9.17
2023-02-22T11:23:08.166Z,8.37
2023-02-22T11:25:42.821Z,9.43
2023-02-22T11:28:30.856Z,8.57
2023-02-22T11:31:11.572Z,8.83
2023-02-22T11:33:49.302Z,8.60
2023-02-22T11:36:40.835Z,9.20
2023-02-22T11:39:24.373Z,8.27
2023-02-22T11:41:53.917Z,9.33
2023-02-22T11:44:25.517Z,9.10
2023-02-22T11:46:56.158Z,10.00
2023-02-22T11:49:36.502Z,9.90
2023-02-22T11:52:07.844Z,10.70
2023-02-22T11:55:32.610Z,10.47
2023-02-22T11:58:59.805Z,11.40
2023-02-22T12:01:53.362Z,10.53
2023-02-22T12:05:06.309Z,10.63
2023-02-22T12:08:19.200Z,10.23
2023-02-22T12:11:10.107Z,10.40
2023-02-22T12:13:49.732Z,10.00
2023-02-22T12:16:34.018Z,9.50
2023-02-22T12:19:22.651Z,9.73
2023-02-22T12:21:58.238Z,9.87
2023-02-22T12:24:39.809Z,9.50
2023-02-22T12:27:17.455Z,8.90
2023-02-22T12:29:58.691Z,9.90
2023-02-22T12:32:43.887Z,9.07
2023-02-22T12:35:39.390Z,9.87
2023-02-22T12:38:48.301Z,9.70
2023-02-22T12:41:47.622Z,9.40
2023-02-22T12:44:30.350Z,8.60
2023-02-22T12:47:00.488Z,9.80
2023-02-22T12:49:40.079Z,8.57
2023-02-22T12:52:22.172Z,8.80
2023-02-22T12:55:04.137Z,9.87
2023-02-22T12:58:08.819Z,9.60
2023-02-22T13:00:40.341Z,9.47
2023-02-22T13:03:22.179Z,9.73
2023-02-22T13:06:04.262Z,9.80
2023-02-22T13:09:16.163Z,9.70
2023-02-22T13:12:19.458Z,8.80
2023-02-22T13:15:17.762Z,9.93
2023-02-22T13:18:04.643Z,9.53
2023-02-22T13:20:41.258Z,8.93
2023-02-22T13:23:31.105Z,9.53
2023-02-22T13:26:00.709Z,8.93
2023-02-22T13:28:43.383Z,8.87
2023-02-22T13:31:40.039Z,8.37
2023-02-22T13:34:34.930Z,8.33
2023-02-22T13:37:23.115Z,8.53
2023-02-22T13:40:43.554Z,8.30
2023-02-22T13:43:59.701Z,8.07
2023-02-22T13:46:54.230Z,8.80
2023-02-22T13:49:46.786Z,6.57
2023-02-22T13:52:21.697Z,7.67
2023-02-22T13:55:02.669Z,7.53
2023-02-22T13:57:39.408Z,7.27
2023-02-22T14:00:15.548Z,7.37
2023-02-22T14:03:08.975Z,7.43
2023-02-22T14:05:44.708Z,6.00
2023-02-22T14:08:14.135Z,7.17
2023-02-22T14:10:43.903Z,5.83
2023-02-22T14:13:17.973Z,6.33
2023-02-22T14:16:00.082Z,5.77
2023-02-22T14:19:15.218Z,6.17
2023-02-22T14:22:04.284Z,5.30
2023-02-22T14:24:50.961Z,5.77
2023-02-22T14:27:22.871Z,6.20
2023-02-22T14:30:00.513Z,6.27
2023-02-22T14:32:38.281Z,6.23
2023-02-22T14:35:26.526Z,5.63
2023-02-22T14:38:01.601Z,5.97
2023-02-22T14:40:37.563Z,5.60
2023-02-22T14:43:14.810Z,6.13
2023-02-22T14:45:54.784Z,6.20
2023-02-22T14:48:39.380Z,6.53
2023-02-22T14:51:27.063Z,6.07
2023-02-22T14:54:32.836Z,6.63
2023-02-22T14:57:15.214Z,5.77
2023-02-22T15:00:28.576Z,5.73
2023-02-22T15:02:58.943Z,5.67
2023-02-22T15:05:38.251Z,6.20
2023-02-22T15:08:09.382Z,5.37
2023-02-22T15:10:47.125Z,5.73
2023-02-22T15:13:24.798Z,6.57
2023-02-22T15:16:03.911Z,7.00
2023-02-22T15:18:40.485Z,6.97
2023-02-22T15:21:18.065Z,7.60
2023-02-22T15:23:50.631Z,7.00
2023-02-22T15:26:35.190Z,7.10
2023-02-22T15:29:25.480Z,7.60
2023-02-22T15:31:58.380Z,6.53
2023-02-22T15:34:31.351Z,7.23
2023-02-22T15:37:25.140Z,6.47
2023-02-22T15:40:05.068Z,6.67
2023-02-22T15:42:31.906Z,7.43
2023-02-22T15:44:58.830Z,7.70
2023-02-22T15:47:35.545Z,7.87
2023-02-22T15:50:23.674Z,7.60
2023-02-22T15:52:59.655Z,7.37
2023-02-22T15:55:37.503Z,7.07
2023-02-22T15:58:12.195Z,8.43
2023-02-22T16:00:49.856Z,8.50
2023-02-22T16:03:29.531Z,8.97
2023-02-22T16:05:59.234Z,9.00
2023-02-22T16:08:49.154Z,10.10
2023-02-22T16:11:35.330Z,8.80
2023-02-22T16:14:06.797Z,8.43
2023-02-22T16:16:44.442Z,9.00
2023-02-22T16:19:31.203Z,9.47
2023-02-22T16:22:03.187Z,9.90
2023-02-22T16:24:36.587Z,9.53
2023-02-22T16:27:20.985Z,9.93
2023-02-22T16:30:18.774Z,10.93
2023-02-22T16:32:57.215Z,11.23
2023-02-22T16:35:29.314Z,9.37
2023-02-22T16:38:16.953Z,10.33
2023-02-22T16:40:56.514Z,10.47
2023-02-22T16:43:31.401Z,10.47
2023-02-22T16:46:02.792Z,10.13
2023-02-22T16:48:37.818Z,9.57
2023-02-22T16:51:26.683Z,9.47
2023-02-22T16:53:56.511Z,10.60
2023-02-22T16:56:31.105Z,11.20
2023-02-22T16:59:12.139Z,9.87
2023-02-22T17:01:42.425Z,10.60
2023-02-22T17:04:17.913Z,10.33
2023-02-22T17:06:47.336Z,9.87
2023-02-22T17:09:19.943Z,10.07
2023-02-22T17:11:51.310Z,9.83
2023-02-22T17:14:29.998Z,10.77
2023-02-22T17:17:00.130Z,10.90
2023-02-22T17:19:27.308Z,10.23
2023-02-22T17:21:56.520Z,10.57
2023-02-22T17:24:29.168Z,10.33
2023-02-22T17:26:59.678Z,10.73
2023-02-22T17:29:27.896Z,12.07
2023-02-22T17:31:55.253Z,10.27
2023-02-22T17:34:26.932Z,11.70
2023-02-22T17:36:54.426Z,12.03
2023-02-22T17:39:23.906Z,10.43
2023-02-22T17:41:56.981Z,11.67
2023-02-22T17:44:26.754Z,10.93
2023-02-22T17:46:53.900Z,10.80
2023-02-22T17:49:27.812Z,10.77
2023-02-22T17:51:55.456Z,11.10
2023-02-22T17:54:26.827Z,11.10
2023-02-22T17:56:53.631Z,11.53
2023-02-22T17:59:20.480Z,11.33
2023-02-22T18:01:54.524Z,11.27
2023-02-22T18:04:23.575Z,11.37
2023-02-22T18:06:52.629Z,11.33
2023-02-22T18:09:23.122Z,10.93
2023-02-22T18:11:54.567Z,10.77
2023-02-22T18:14:21.485Z,11.37
2023-02-22T18:16:48.331Z,11.70
2023-02-22T18:19:20.453Z,10.67
2023-02-22T18:21:52.331Z,11.57
2023-02-22T18:24:23.890Z,12.17
2023-02-22T18:26:53.684Z,12.47
2023-02-22T18:29:22.832Z,13.53
2023-02-22T18:31:56.234Z,13.33
2023-02-22T18:34:26.952Z,12.93
2023-02-22T18:36:56.277Z,12.90
2023-02-22T18:39:25.524Z,12.80
2023-02-22T18:41:52.332Z,12.47
2023-02-22T18:44:21.240Z,12.70
2023-02-22T18:46:55.448Z,10.57
2023-02-22T18:49:27.135Z,11.73
2023-02-22T18:51:53.955Z,12.17
2023-02-22T18:54:23.260Z,12.00
2023-02-22T18:56:50.193Z,12.73
2023-02-22T18:59:19.663Z,12.83
2023-02-22T19:01:49.025Z,11.87
2023-02-22T19:04:18.084Z,11.87
2023-02-22T19:06:48.298Z,12.20
2023-02-22T19:09:16.247Z,11.87
2023-02-22T19:11:45.086Z,12.77
2023-02-22T19:14:15.909Z,13.53
2023-02-22T19:16:46.377Z,13.07
2023-02-22T19:19:21.078Z,12.97
2023-02-22T19:21:56.225Z,12.40
2023-02-22T19:24:25.764Z,12.83
2023-02-22T19:26:57.386Z,13.07
2023-02-22T19:29:24.438Z,12.57
2023-02-22T19:31:53.923Z,13.17
2023-02-22T19:34:28.849Z,13.20
2023-02-22T19:37:00.185Z,13.27
2023-02-22T19:39:32.070Z,12.43
2023-02-22T19:42:04.680Z,12.27
2023-02-22T19:44:34.170Z,12.43
2023-02-22T19:47:01.013Z,12.50
2023-02-22T19:49:30.270Z,13.77
2023-02-22T19:52:03.724Z,13.40
2023-02-22T19:54:33.110Z,13.30
2023-02-22T19:57:00.360Z,14.77
2023-02-22T19:59:27.481Z,13.83
2023-02-22T20:02:01.428Z,13.63
2023-02-22T20:04:30.947Z,14.53
2023-02-22T20:07:00.004Z,13.77
2023-02-22T20:09:43.145Z,15.53
2023-02-22T20:12:14.693Z,14.17
2023-02-22T20:14:41.783Z,14.20
2023-02-22T20:17:10.136Z,14.93
2023-02-22T20:19:40.519Z,15.37
2023-02-22T20:22:07.365Z,14.70
2023-02-22T20:24:36.531Z,14.40
2023-02-22T20:27:05.697Z,15.37
2023-02-22T20:29:32.597Z,14.90
2023-02-22T20:32:02.991Z,14.37
2023-02-22T20:34:36.080Z,14.90
2023-02-22T20:37:05.413Z,13.63
2023-02-22T20:39:34.455Z,14.37
2023-02-22T20:42:04.981Z,14.47
2023-02-22T20:44:34.595Z,14.27
2023-02-22T20:47:03.954Z,14.10
2023-02-22T20:49:30.879Z,13.87
2023-02-22T20:51:57.894Z,13.17
2023-02-22T20:54:27.010Z,13.63
2023-02-22T20:56:56.107Z,12.87
2023-02-22T20:59:25.122Z,14.57
2023-02-22T21:01:54.456Z,13.97
2023-02-22T21:04:24.841Z,14.87
2023-02-22T21:06:54.288Z,12.87
2023-02-22T21:09:23.643Z,13.90
2023-02-22T21:11:57.713Z,14.50
2023-02-22T21:14:26.905Z,13.93
2023-02-22T21:16:53.999Z,14.53
2023-02-22T21:19:27.270Z,11.93
2023-02-22T21:21:59.618Z,14.17
2023-02-22T21:24:28.873Z,13.43
2023-02-22T21:27:00.694Z,13.70
2023-02-22T21:29:29.640Z,13.43
2023-02-22T21:31:59.853Z,13.70
2023-02-22T21:34:29.931Z,14.07
2023-02-22T21:36:56.871Z,14.10
2023-02-22T21:39:30.640Z,14.47
2023-02-22T21:42:01.032Z,12.73
2023-02-22T21:44:28.641Z,14.30
2023-02-22T21:46:55.627Z,13.80
2023-02-22T21:49:23.051Z,13.00
2023-02-22T21:51:52.227Z,13.80
2023-02-22T21:54:23.726Z,13.37
2023-02-22T21:56:54.822Z,12.97
2023-02-22T21:59:24.276Z,14.30
2023-02-22T22:01:56.205Z,13.97
2023-02-22T22:04:34.900Z,13.63
2023-02-22T22:07:04.292Z,13.60
2023-02-22T22:09:37.017Z,13.80
2023-02-22T22:12:10.721Z,11.93
2023-02-22T22:14:44.745Z,14.07
2023-02-22T22:17:14.126Z,13.80
2023-02-22T22:19:44.715Z,13.40
2023-02-22T22:22:14.149Z,13.93
2023-02-22T22:24:45.912Z,13.17
2023-02-22T22:27:16.449Z,14.03
2023-02-22T22:29:57.062Z,13.47
2023-02-22T22:32:32.110Z,13.80
2023-02-22T22:35:01.436Z,15.07
2023-02-22T22:37:31.350Z,14.47
2023-02-22T22:40:01.637Z,13.67
2023-02-22T22:42:28.519Z,14.07
2023-02-22T22:44:57.442Z,14.93
2023-02-22T22:47:24.420Z,13.93
2023-02-22T22:49:58.663Z,13.97
2023-02-22T22:52:31.109Z,14.60
2023-02-22T22:55:02.652Z,13.73
2023-02-22T22:57:31.824Z,13.60
2023-02-22T23:00:00.153Z,15.57
2023-02-22T23:02:27.035Z,12.43
2023-02-22T23:04:56.461Z,13.93
2023-02-22T23:07:23.338Z,13.63
2023-02-22T23:09:52.774Z,13.27
2023-02-22T23:12:31.332Z,14.07
2023-02-22T23:14:58.284Z,13.67
2023-02-22T23:17:41.048Z,14.50
2023-02-22T23:20:13.019Z,13.63
2023-02-22T23:22:42.745Z,14.67
2023-02-22T23:25:09.724Z,13.37
2023-02-22T23:27:38.867Z,13.57
2023-02-22T23:30:06.762Z,13.43
2023-02-22T23:32:35.045Z,14.00
2023-02-22T23:35:07.136Z,13.40
2023-02-22T23:37:41.192Z,13.80
2023-02-22T23:40:19.770Z,14.23
2023-02-22T23:42:54.475Z,13.60
2023-02-22T23:45:24.761Z,13.37
2023-02-22T23:48:03.492Z,14.03
2023-02-22T23:50:36.287Z,12.70
2023-02-22T23:53:03.593Z,14.00
2023-02-22T23:55:38.971Z,13.73
2023-02-22T23:58:10.530Z,13.27
